sensor_id;sensor_type;location;lat;lon;timestamp;temperature;humidity
27671;DHT22;15077;49.704;9.908;2022-11-15T00:02:11;12.60;66.20
27671;DHT22;15077;49.704;9.908;2022-11-15T00:04:36;12.60;66.20
27671;DHT22;15077;49.704;9.908;2022-11-15T00:07:02;12.60;66.20
27671;DHT22;15077;49.704;9.908;2022-11-15T00:09:28;12.60;66.20
27671;DHT22;15077;49.704;9.908;2022-11-15T00:11:53;12.60;66.80
27671;DHT22;15077;49.704;9.908;2022-11-15T00:14:19;12.70;66.20
27671;DHT22;15077;49.704;9.908;2022-11-15T00:16:45;12.60;66.20
27671;DHT22;15077;49.704;9.908;2022-11-15T00:19:11;12.70;66.20
27671;DHT22;15077;49.704;9.908;2022-11-15T00:21:37;12.70;66.20
27671;DHT22;15077;49.704;9.908;2022-11-15T00:24:02;12.70;66.20
27671;DHT22;15077;49.704;9.908;2022-11-15T00:26:28;12.70;66.20
27671;DHT22;15077;49.704;9.908;2022-11-15T00:28:57;12.70;66.20
27671;DHT22;15077;49.704;9.908;2022-11-15T00:31:23;12.70;66.20
27671;DHT22;15077;49.704;9.908;2022-11-15T00:33:51;12.70;66.10
27671;DHT22;15077;49.704;9.908;2022-11-15T00:36:17;12.70;66.10
27671;DHT22;15077;49.704;9.908;2022-11-15T00:38:43;12.70;66.20
27671;DHT22;15077;49.704;9.908;2022-11-15T00:41:08;12.70;66.10
27671;DHT22;15077;49.704;9.908;2022-11-15T00:43:35;12.70;66.10
27671;DHT22;15077;49.704;9.908;2022-11-15T00:46:01;12.70;66.20
27671;DHT22;15077;49.704;9.908;2022-11-15T00:48:27;12.70;66.20
27671;DHT22;15077;49.704;9.908;2022-11-15T00:50:54;12.70;66.10
27671;DHT22;15077;49.704;9.908;2022-11-15T00:53:19;12.60;66.10
27671;DHT22;15077;49.704;9.908;2022-11-15T00:55:45;12.60;66.10
27671;DHT22;15077;49.704;9.908;2022-11-15T00:58:11;12.60;66.10
27671;DHT22;15077;49.704;9.908;2022-11-15T01:00:37;12.60;66.10
27671;DHT22;15077;49.704;9.908;2022-11-15T01:03:04;12.70;66.10
27671;DHT22;15077;49.704;9.908;2022-11-15T01:05:29;12.60;66.00
27671;DHT22;15077;49.704;9.908;2022-11-15T01:07:55;12.70;66.10
27671;DHT22;15077;49.704;9.908;2022-11-15T01:10:22;12.70;66.10
27671;DHT22;15077;49.704;9.908;2022-11-15T01:12:48;12.70;66.10
27671;DHT22;15077;49.704;9.908;2022-11-15T01:15:14;12.60;66.00
27671;DHT22;15077;49.704;9.908;2022-11-15T01:17:40;12.60;66.00
27671;DHT22;15077;49.704;9.908;2022-11-15T01:20:06;12.60;66.50
27671;DHT22;15077;49.704;9.908;2022-11-15T01:22:32;12.60;65.90
27671;DHT22;15077;49.704;9.908;2022-11-15T01:24:58;12.60;65.90
27671;DHT22;15077;49.704;9.908;2022-11-15T01:27:23;12.60;65.80
27671;DHT22;15077;49.704;9.908;2022-11-15T01:29:49;12.60;65.80
27671;DHT22;15077;49.704;9.908;2022-11-15T01:32:15;12.60;65.80
27671;DHT22;15077;49.704;9.908;2022-11-15T01:34:41;12.60;65.80
27671;DHT22;15077;49.704;9.908;2022-11-15T01:37:07;12.60;65.80
27671;DHT22;15077;49.704;9.908;2022-11-15T01:39:32;12.60;65.80
27671;DHT22;15077;49.704;9.908;2022-11-15T01:41:58;12.60;65.80
27671;DHT22;15077;49.704;9.908;2022-11-15T01:46:59;12.50;65.70
27671;DHT22;15077;49.704;9.908;2022-11-15T01:49:27;12.50;65.80
27671;DHT22;15077;49.704;9.908;2022-11-15T01:51:57;12.50;65.80
27671;DHT22;15077;49.704;9.908;2022-11-15T01:54:24;12.40;65.80
27671;DHT22;15077;49.704;9.908;2022-11-15T01:57:01;12.50;65.90
27671;DHT22;15077;49.704;9.908;2022-11-15T01:59:32;12.40;65.80
27671;DHT22;15077;49.704;9.908;2022-11-15T02:01:58;12.40;65.80
27671;DHT22;15077;49.704;9.908;2022-11-15T02:04:25;12.40;65.80
27671;DHT22;15077;49.704;9.908;2022-11-15T02:06:53;12.40;65.80
27671;DHT22;15077;49.704;9.908;2022-11-15T02:09:19;12.40;65.80
27671;DHT22;15077;49.704;9.908;2022-11-15T02:11:44;12.40;65.80
27671;DHT22;15077;49.704;9.908;2022-11-15T02:14:12;12.40;65.90
27671;DHT22;15077;49.704;9.908;2022-11-15T02:19:23;12.30;65.80
27671;DHT22;15077;49.704;9.908;2022-11-15T02:22:37;12.30;65.80
27671;DHT22;15077;49.704;9.908;2022-11-15T02:25:22;12.30;65.90
27671;DHT22;15077;49.704;9.908;2022-11-15T02:30:44;12.30;65.80
27671;DHT22;15077;49.704;9.908;2022-11-15T02:33:21;12.30;65.80
27671;DHT22;15077;49.704;9.908;2022-11-15T02:36:02;12.20;65.80
27671;DHT22;15077;49.704;9.908;2022-11-15T02:41:31;12.20;65.70
27671;DHT22;15077;49.704;9.908;2022-11-15T02:44:33;12.20;65.70
27671;DHT22;15077;49.704;9.908;2022-11-15T02:47:05;12.20;65.70
27671;DHT22;15077;49.704;9.908;2022-11-15T02:49:48;12.10;65.60
27671;DHT22;15077;49.704;9.908;2022-11-15T02:52:17;12.10;65.50
27671;DHT22;15077;49.704;9.908;2022-11-15T02:55:00;12.10;65.50
27671;DHT22;15077;49.704;9.908;2022-11-15T02:57:42;12.00;65.40
27671;DHT22;15077;49.704;9.908;2022-11-15T03:00:10;12.00;65.40
27671;DHT22;15077;49.704;9.908;2022-11-15T03:10:45;11.80;65.30
27671;DHT22;15077;49.704;9.908;2022-11-15T03:13:30;11.80;65.40
27671;DHT22;15077;49.704;9.908;2022-11-15T03:16:05;11.80;65.40
27671;DHT22;15077;49.704;9.908;2022-11-15T03:18:37;11.70;65.30
27671;DHT22;15077;49.704;9.908;2022-11-15T03:21:07;11.70;65.40
27671;DHT22;15077;49.704;9.908;2022-11-15T03:23:35;11.70;65.50
27671;DHT22;15077;49.704;9.908;2022-11-15T03:26:03;11.60;65.50
27671;DHT22;15077;49.704;9.908;2022-11-15T03:28:50;11.60;65.50
27671;DHT22;15077;49.704;9.908;2022-11-15T03:31:20;11.60;65.50
27671;DHT22;15077;49.704;9.908;2022-11-15T03:34:07;11.60;65.40
27671;DHT22;15077;49.704;9.908;2022-11-15T03:36:39;11.50;65.40
27671;DHT22;15077;49.704;9.908;2022-11-15T03:39:06;11.50;65.40
27671;DHT22;15077;49.704;9.908;2022-11-15T03:41:44;11.50;65.40
27671;DHT22;15077;49.704;9.908;2022-11-15T03:44:14;11.40;65.30
27671;DHT22;15077;49.704;9.908;2022-11-15T03:46:47;11.40;65.30
27671;DHT22;15077;49.704;9.908;2022-11-15T03:49:34;11.40;65.30
27671;DHT22;15077;49.704;9.908;2022-11-15T03:52:03;11.30;65.30
27671;DHT22;15077;49.704;9.908;2022-11-15T03:54:30;11.30;65.40
27671;DHT22;15077;49.704;9.908;2022-11-15T03:56:56;11.30;65.30
27671;DHT22;15077;49.704;9.908;2022-11-15T03:59:22;11.30;65.30
27671;DHT22;15077;49.704;9.908;2022-11-15T04:01:48;11.20;65.10
27671;DHT22;15077;49.704;9.908;2022-11-15T04:04:13;11.20;65.10
27671;DHT22;15077;49.704;9.908;2022-11-15T04:06:39;11.10;65.10
27671;DHT22;15077;49.704;9.908;2022-11-15T04:09:05;11.10;65.20
27671;DHT22;15077;49.704;9.908;2022-11-15T04:11:32;11.00;65.20
27671;DHT22;15077;49.704;9.908;2022-11-15T04:13:58;11.00;65.20
27671;DHT22;15077;49.704;9.908;2022-11-15T04:16:23;11.00;65.20
27671;DHT22;15077;49.704;9.908;2022-11-15T04:18:49;11.00;65.30
27671;DHT22;15077;49.704;9.908;2022-11-15T04:21:35;10.90;65.30
27671;DHT22;15077;49.704;9.908;2022-11-15T04:24:19;10.90;65.20
27671;DHT22;15077;49.704;9.908;2022-11-15T04:26:45;10.90;65.20
27671;DHT22;15077;49.704;9.908;2022-11-15T04:29:10;10.90;65.30
27671;DHT22;15077;49.704;9.908;2022-11-15T04:31:55;10.80;65.20
27671;DHT22;15077;49.704;9.908;2022-11-15T04:34:20;10.80;65.10
27671;DHT22;15077;49.704;9.908;2022-11-15T04:36:46;10.80;65.10
27671;DHT22;15077;49.704;9.908;2022-11-15T04:39:30;10.70;65.00
27671;DHT22;15077;49.704;9.908;2022-11-15T04:41:56;10.70;65.10
27671;DHT22;15077;49.704;9.908;2022-11-15T04:44:21;10.70;65.20
27671;DHT22;15077;49.704;9.908;2022-11-15T04:46:47;10.60;65.00
27671;DHT22;15077;49.704;9.908;2022-11-15T04:49:12;10.60;65.00
27671;DHT22;15077;49.704;9.908;2022-11-15T04:51:38;10.60;65.10
27671;DHT22;15077;49.704;9.908;2022-11-15T04:54:04;10.50;65.00
27671;DHT22;15077;49.704;9.908;2022-11-15T04:56:29;10.50;65.10
27671;DHT22;15077;49.704;9.908;2022-11-15T04:58:55;10.50;65.10
27671;DHT22;15077;49.704;9.908;2022-11-15T05:01:21;10.40;65.00
27671;DHT22;15077;49.704;9.908;2022-11-15T05:03:46;10.40;65.00
27671;DHT22;15077;49.704;9.908;2022-11-15T05:06:31;10.40;65.10
27671;DHT22;15077;49.704;9.908;2022-11-15T05:08:56;10.30;65.10
27671;DHT22;15077;49.704;9.908;2022-11-15T05:11:22;10.30;65.10
27671;DHT22;15077;49.704;9.908;2022-11-15T05:13:48;10.30;65.10
27671;DHT22;15077;49.704;9.908;2022-11-15T05:16:14;10.30;65.70
27671;DHT22;15077;49.704;9.908;2022-11-15T05:18:40;10.20;65.00
27671;DHT22;15077;49.704;9.908;2022-11-15T05:21:06;10.20;65.10
27671;DHT22;15077;49.704;9.908;2022-11-15T05:23:34;10.10;65.10
27671;DHT22;15077;49.704;9.908;2022-11-15T05:26:00;10.10;65.20
27671;DHT22;15077;49.704;9.908;2022-11-15T05:28:27;10.10;65.30
27671;DHT22;15077;49.704;9.908;2022-11-15T05:30:53;10.10;65.20
27671;DHT22;15077;49.704;9.908;2022-11-15T05:33:18;10.00;65.20
27671;DHT22;15077;49.704;9.908;2022-11-15T05:35:46;10.00;65.30
27671;DHT22;15077;49.704;9.908;2022-11-15T05:38:19;10.00;65.30
27671;DHT22;15077;49.704;9.908;2022-11-15T05:40:45;10.00;65.30
27671;DHT22;15077;49.704;9.908;2022-11-15T05:43:11;9.90;65.40
27671;DHT22;15077;49.704;9.908;2022-11-15T05:45:37;9.90;65.40
27671;DHT22;15077;49.704;9.908;2022-11-15T05:48:04;9.90;65.50
27671;DHT22;15077;49.704;9.908;2022-11-15T05:50:32;9.90;65.50
27671;DHT22;15077;49.704;9.908;2022-11-15T05:52:58;9.90;65.50
27671;DHT22;15077;49.704;9.908;2022-11-15T05:55:25;9.90;65.40
27671;DHT22;15077;49.704;9.908;2022-11-15T05:57:51;9.90;65.40
27671;DHT22;15077;49.704;9.908;2022-11-15T06:00:17;9.90;65.40
27671;DHT22;15077;49.704;9.908;2022-11-15T06:02:43;9.90;65.40
27671;DHT22;15077;49.704;9.908;2022-11-15T06:05:08;9.90;65.30
27671;DHT22;15077;49.704;9.908;2022-11-15T06:07:34;9.90;65.30
27671;DHT22;15077;49.704;9.908;2022-11-15T06:09:59;9.80;65.20
27671;DHT22;15077;49.704;9.908;2022-11-15T06:12:25;9.80;65.30
27671;DHT22;15077;49.704;9.908;2022-11-15T06:14:51;9.70;65.40
27671;DHT22;15077;49.704;9.908;2022-11-15T06:17:16;9.70;65.40
27671;DHT22;15077;49.704;9.908;2022-11-15T06:19:42;9.70;65.50
27671;DHT22;15077;49.704;9.908;2022-11-15T06:22:07;9.70;65.50
27671;DHT22;15077;49.704;9.908;2022-11-15T06:24:34;9.70;65.60
27671;DHT22;15077;49.704;9.908;2022-11-15T06:27:00;9.70;65.60
27671;DHT22;15077;49.704;9.908;2022-11-15T06:29:26;9.70;65.70
27671;DHT22;15077;49.704;9.908;2022-11-15T06:31:51;9.70;65.70
27671;DHT22;15077;49.704;9.908;2022-11-15T06:34:18;9.70;65.70
27671;DHT22;15077;49.704;9.908;2022-11-15T06:36:43;9.70;65.70
27671;DHT22;15077;49.704;9.908;2022-11-15T06:39:09;9.70;65.80
27671;DHT22;15077;49.704;9.908;2022-11-15T06:41:35;9.80;65.80
27671;DHT22;15077;49.704;9.908;2022-11-15T06:44:19;9.80;65.90
27671;DHT22;15077;49.704;9.908;2022-11-15T06:46:44;9.80;65.90
27671;DHT22;15077;49.704;9.908;2022-11-15T06:49:10;9.80;65.90
27671;DHT22;15077;49.704;9.908;2022-11-15T06:51:36;9.80;65.90
27671;DHT22;15077;49.704;9.908;2022-11-15T06:54:01;9.80;65.90
27671;DHT22;15077;49.704;9.908;2022-11-15T06:56:27;9.80;66.00
27671;DHT22;15077;49.704;9.908;2022-11-15T06:58:53;9.80;66.10
27671;DHT22;15077;49.704;9.908;2022-11-15T07:01:18;9.70;66.10
27671;DHT22;15077;49.704;9.908;2022-11-15T07:03:44;9.70;66.20
27671;DHT22;15077;49.704;9.908;2022-11-15T07:06:11;9.70;66.30
27671;DHT22;15077;49.704;9.908;2022-11-15T07:08:37;9.70;66.20
27671;DHT22;15077;49.704;9.908;2022-11-15T07:11:04;9.70;66.30
27671;DHT22;15077;49.704;9.908;2022-11-15T07:13:32;9.70;66.30
27671;DHT22;15077;49.704;9.908;2022-11-15T07:16:01;9.70;66.40
27671;DHT22;15077;49.704;9.908;2022-11-15T07:18:30;9.70;66.40
27671;DHT22;15077;49.704;9.908;2022-11-15T07:20:59;9.70;66.50
27671;DHT22;15077;49.704;9.908;2022-11-15T07:23:26;9.70;66.50
27671;DHT22;15077;49.704;9.908;2022-11-15T07:25:51;9.70;66.50
27671;DHT22;15077;49.704;9.908;2022-11-15T07:28:17;9.70;66.50
27671;DHT22;15077;49.704;9.908;2022-11-15T07:30:42;9.70;66.50
27671;DHT22;15077;49.704;9.908;2022-11-15T07:33:08;9.70;66.50
27671;DHT22;15077;49.704;9.908;2022-11-15T07:35:34;9.70;67.20
27671;DHT22;15077;49.704;9.908;2022-11-15T07:38:00;9.70;66.60
27671;DHT22;15077;49.704;9.908;2022-11-15T07:40:27;9.80;66.70
27671;DHT22;15077;49.704;9.908;2022-11-15T07:43:00;9.80;66.70
27671;DHT22;15077;49.704;9.908;2022-11-15T07:45:32;9.80;66.70
27671;DHT22;15077;49.704;9.908;2022-11-15T07:48:01;9.80;66.70
27671;DHT22;15077;49.704;9.908;2022-11-15T07:50:27;9.80;66.70
27671;DHT22;15077;49.704;9.908;2022-11-15T07:52:56;9.80;66.70
27671;DHT22;15077;49.704;9.908;2022-11-15T07:55:24;9.80;66.70
27671;DHT22;15077;49.704;9.908;2022-11-15T07:57:52;9.80;66.80
27671;DHT22;15077;49.704;9.908;2022-11-15T08:00:18;9.90;66.90
27671;DHT22;15077;49.704;9.908;2022-11-15T08:02:44;9.90;66.90
27671;DHT22;15077;49.704;9.908;2022-11-15T08:05:10;9.90;66.80
27671;DHT22;15077;49.704;9.908;2022-11-15T08:07:36;9.90;67.00
27671;DHT22;15077;49.704;9.908;2022-11-15T08:10:03;9.90;67.00
27671;DHT22;15077;49.704;9.908;2022-11-15T08:12:31;9.90;67.10
27671;DHT22;15077;49.704;9.908;2022-11-15T08:14:57;9.90;67.20
27671;DHT22;15077;49.704;9.908;2022-11-15T08:17:23;9.90;67.20
27671;DHT22;15077;49.704;9.908;2022-11-15T08:19:49;9.90;67.20
27671;DHT22;15077;49.704;9.908;2022-11-15T08:22:15;9.90;67.30
27671;DHT22;15077;49.704;9.908;2022-11-15T08:24:41;10.00;67.50
27671;DHT22;15077;49.704;9.908;2022-11-15T08:27:07;10.00;67.60
27671;DHT22;15077;49.704;9.908;2022-11-15T08:29:43;10.00;67.80
27671;DHT22;15077;49.704;9.908;2022-11-15T08:32:09;10.10;68.10
27671;DHT22;15077;49.704;9.908;2022-11-15T08:34:36;10.10;68.20
27671;DHT22;15077;49.704;9.908;2022-11-15T08:37:03;10.10;68.10
27671;DHT22;15077;49.704;9.908;2022-11-15T08:39:29;10.20;68.20
27671;DHT22;15077;49.704;9.908;2022-11-15T08:41:54;10.20;68.20
27671;DHT22;15077;49.704;9.908;2022-11-15T08:44:20;10.30;68.40
27671;DHT22;15077;49.704;9.908;2022-11-15T08:46:46;10.40;68.40
27671;DHT22;15077;49.704;9.908;2022-11-15T08:49:12;10.40;68.50
27671;DHT22;15077;49.704;9.908;2022-11-15T08:51:37;10.50;68.40
27671;DHT22;15077;49.704;9.908;2022-11-15T08:54:03;10.60;68.50
27671;DHT22;15077;49.704;9.908;2022-11-15T08:56:29;10.60;68.60
27671;DHT22;15077;49.704;9.908;2022-11-15T08:58:54;10.70;68.50
27671;DHT22;15077;49.704;9.908;2022-11-15T09:01:20;10.80;68.60
27671;DHT22;15077;49.704;9.908;2022-11-15T09:03:46;10.90;68.60
27671;DHT22;15077;49.704;9.908;2022-11-15T09:06:12;11.00;69.40
27671;DHT22;15077;49.704;9.908;2022-11-15T09:08:38;11.10;68.70
27671;DHT22;15077;49.704;9.908;2022-11-15T09:11:05;11.20;68.80
27671;DHT22;15077;49.704;9.908;2022-11-15T09:13:31;11.30;68.90
27671;DHT22;15077;49.704;9.908;2022-11-15T09:15:57;11.40;69.10
27671;DHT22;15077;49.704;9.908;2022-11-15T09:18:24;11.50;69.30
27671;DHT22;15077;49.704;9.908;2022-11-15T09:20:50;11.60;69.90
27671;DHT22;15077;49.704;9.908;2022-11-15T09:23:16;11.70;69.20
27671;DHT22;15077;49.704;9.908;2022-11-15T09:25:41;11.80;69.20
27671;DHT22;15077;49.704;9.908;2022-11-15T09:28:07;12.00;69.30
27671;DHT22;15077;49.704;9.908;2022-11-15T09:30:33;12.10;69.20
27671;DHT22;15077;49.704;9.908;2022-11-15T09:32:59;12.20;69.10
27671;DHT22;15077;49.704;9.908;2022-11-15T09:35:32;12.30;69.00
27671;DHT22;15077;49.704;9.908;2022-11-15T09:37:57;12.40;69.10
27671;DHT22;15077;49.704;9.908;2022-11-15T09:40:23;12.60;69.40
27671;DHT22;15077;49.704;9.908;2022-11-15T09:50:58;13.30;69.70
27671;DHT22;15077;49.704;9.908;2022-11-15T09:53:39;13.50;69.70
27671;DHT22;15077;49.704;9.908;2022-11-15T09:56:20;13.70;69.90
27671;DHT22;15077;49.704;9.908;2022-11-15T10:04:06;14.80;70.70
27671;DHT22;15077;49.704;9.908;2022-11-15T10:06:31;15.20;70.20
27671;DHT22;15077;49.704;9.908;2022-11-15T10:11:32;15.90;69.50
27671;DHT22;15077;49.704;9.908;2022-11-15T10:14:01;16.10;68.90
27671;DHT22;15077;49.704;9.908;2022-11-15T10:21:42;16.60;67.40
27671;DHT22;15077;49.704;9.908;2022-11-15T10:24:28;16.70;67.20
27671;DHT22;15077;49.704;9.908;2022-11-15T10:26:57;16.80;66.70
27671;DHT22;15077;49.704;9.908;2022-11-15T10:29:23;16.80;66.60
27671;DHT22;15077;49.704;9.908;2022-11-15T10:31:50;16.80;66.40
27671;DHT22;15077;49.704;9.908;2022-11-15T10:34:17;16.80;66.30
27671;DHT22;15077;49.704;9.908;2022-11-15T10:36:45;16.80;66.20
27671;DHT22;15077;49.704;9.908;2022-11-15T10:39:12;16.80;66.00
27671;DHT22;15077;49.704;9.908;2022-11-15T10:41:40;16.80;65.90
27671;DHT22;15077;49.704;9.908;2022-11-15T10:46:47;16.70;65.50
27671;DHT22;15077;49.704;9.908;2022-11-15T10:49:29;16.60;65.50
27671;DHT22;15077;49.704;9.908;2022-11-15T10:52:04;16.60;65.60
27671;DHT22;15077;49.704;9.908;2022-11-15T10:57:15;16.60;65.70
27671;DHT22;15077;49.704;9.908;2022-11-15T10:59:50;16.50;65.50
27671;DHT22;15077;49.704;9.908;2022-11-15T11:10:56;16.80;65.60
27671;DHT22;15077;49.704;9.908;2022-11-15T11:13:27;16.80;65.60
27671;DHT22;15077;49.704;9.908;2022-11-15T11:21:17;17.00;65.40
27671;DHT22;15077;49.704;9.908;2022-11-15T11:23:59;17.00;65.30
27671;DHT22;15077;49.704;9.908;2022-11-15T11:36:41;16.90;64.70
27671;DHT22;15077;49.704;9.908;2022-11-15T11:39:19;16.90;64.70
27671;DHT22;15077;49.704;9.908;2022-11-15T11:41:59;16.90;64.80
27671;DHT22;15077;49.704;9.908;2022-11-15T11:47:24;16.80;64.80
27671;DHT22;15077;49.704;9.908;2022-11-15T11:50:20;16.80;64.80
27671;DHT22;15077;49.704;9.908;2022-11-15T11:52:54;16.80;64.80
27671;DHT22;15077;49.704;9.908;2022-11-15T11:55:32;16.80;65.50
27671;DHT22;15077;49.704;9.908;2022-11-15T11:58:17;16.70;64.90
27671;DHT22;15077;49.704;9.908;2022-11-15T12:00:52;16.70;64.90
27671;DHT22;15077;49.704;9.908;2022-11-15T12:03:34;16.70;65.00
27671;DHT22;15077;49.704;9.908;2022-11-15T12:06:20;16.70;65.10
27671;DHT22;15077;49.704;9.908;2022-11-15T12:11:38;16.60;64.90
27671;DHT22;15077;49.704;9.908;2022-11-15T12:16:58;16.60;65.00
27671;DHT22;15077;49.704;9.908;2022-11-15T12:19:24;16.60;65.10
27671;DHT22;15077;49.704;9.908;2022-11-15T12:22:00;16.60;65.10
27671;DHT22;15077;49.704;9.908;2022-11-15T12:30:38;16.60;65.20
27671;DHT22;15077;49.704;9.908;2022-11-15T12:36:00;16.60;65.20
27671;DHT22;15077;49.704;9.908;2022-11-15T12:41:17;16.70;65.20
27671;DHT22;15077;49.704;9.908;2022-11-15T12:43:45;16.60;65.20
27671;DHT22;15077;49.704;9.908;2022-11-15T12:46:22;16.70;65.30
27671;DHT22;15077;49.704;9.908;2022-11-15T12:49:10;16.70;65.30
27671;DHT22;15077;49.704;9.908;2022-11-15T13:02:21;16.60;65.70
27671;DHT22;15077;49.704;9.908;2022-11-15T13:04:49;16.60;65.70
27671;DHT22;15077;49.704;9.908;2022-11-15T13:10:00;16.60;65.80
27671;DHT22;15077;49.704;9.908;2022-11-15T13:22:40;16.70;65.90
27671;DHT22;15077;49.704;9.908;2022-11-15T13:30:53;16.80;66.00
27671;DHT22;15077;49.704;9.908;2022-11-15T13:33:24;16.80;66.00
27671;DHT22;15077;49.704;9.908;2022-11-15T13:36:22;16.80;65.90
27671;DHT22;15077;49.704;9.908;2022-11-15T13:41:54;16.90;65.90
27671;DHT22;15077;49.704;9.908;2022-11-15T13:44:27;16.90;66.00
27671;DHT22;15077;49.704;9.908;2022-11-15T13:49:29;16.90;65.80
27671;DHT22;15077;49.704;9.908;2022-11-15T13:51:56;16.90;65.80
27671;DHT22;15077;49.704;9.908;2022-11-15T13:56:55;16.90;65.80
27671;DHT22;15077;49.704;9.908;2022-11-15T13:59:25;16.90;65.80
27671;DHT22;15077;49.704;9.908;2022-11-15T14:01:53;16.90;65.80
27671;DHT22;15077;49.704;9.908;2022-11-15T14:04:21;16.90;65.70
27671;DHT22;15077;49.704;9.908;2022-11-15T14:06:55;17.00;65.80
27671;DHT22;15077;49.704;9.908;2022-11-15T14:11:54;17.00;65.80
27671;DHT22;15077;49.704;9.908;2022-11-15T14:14:22;17.00;65.80
27671;DHT22;15077;49.704;9.908;2022-11-15T14:16:53;17.00;65.80
27671;DHT22;15077;49.704;9.908;2022-11-15T14:25:04;17.00;65.80
27671;DHT22;15077;49.704;9.908;2022-11-15T14:27:30;17.00;65.90
27671;DHT22;15077;49.704;9.908;2022-11-15T14:29:57;17.00;65.90
27671;DHT22;15077;49.704;9.908;2022-11-15T14:32:29;17.00;65.90
27671;DHT22;15077;49.704;9.908;2022-11-15T14:35:11;17.00;65.90
27671;DHT22;15077;49.704;9.908;2022-11-15T14:37:41;17.00;66.00
27671;DHT22;15077;49.704;9.908;2022-11-15T14:40:07;17.00;66.00
27671;DHT22;15077;49.704;9.908;2022-11-15T14:42:37;17.00;65.90
27671;DHT22;15077;49.704;9.908;2022-11-15T14:45:02;17.00;65.90
27671;DHT22;15077;49.704;9.908;2022-11-15T14:47:28;17.00;65.80
27671;DHT22;15077;49.704;9.908;2022-11-15T14:49:54;17.00;65.70
27671;DHT22;15077;49.704;9.908;2022-11-15T14:52:37;16.90;65.70
27671;DHT22;15077;49.704;9.908;2022-11-15T14:55:04;16.90;65.60
27671;DHT22;15077;49.704;9.908;2022-11-15T14:57:40;16.90;65.60
27671;DHT22;15077;49.704;9.908;2022-11-15T15:00:06;16.80;65.60
27671;DHT22;15077;49.704;9.908;2022-11-15T15:02:33;16.80;65.60
27671;DHT22;15077;49.704;9.908;2022-11-15T15:04:59;16.80;65.60
27671;DHT22;15077;49.704;9.908;2022-11-15T15:07:27;16.70;65.60
27671;DHT22;15077;49.704;9.908;2022-11-15T15:09:53;16.70;65.60
27671;DHT22;15077;49.704;9.908;2022-11-15T15:12:20;16.70;65.60
27671;DHT22;15077;49.704;9.908;2022-11-15T15:14:47;16.70;65.70
27671;DHT22;15077;49.704;9.908;2022-11-15T15:17:15;16.60;65.70
27671;DHT22;15077;49.704;9.908;2022-11-15T15:19:41;16.60;65.70
27671;DHT22;15077;49.704;9.908;2022-11-15T15:22:17;16.60;65.70
27671;DHT22;15077;49.704;9.908;2022-11-15T15:24:44;16.60;66.30
27671;DHT22;15077;49.704;9.908;2022-11-15T15:27:11;16.60;65.70
27671;DHT22;15077;49.704;9.908;2022-11-15T15:29:37;16.60;65.70
27671;DHT22;15077;49.704;9.908;2022-11-15T15:32:04;16.60;65.70
27671;DHT22;15077;49.704;9.908;2022-11-15T15:34:30;16.60;65.70
27671;DHT22;15077;49.704;9.908;2022-11-15T15:37:06;16.60;65.70
27671;DHT22;15077;49.704;9.908;2022-11-15T15:39:53;16.50;65.60
27671;DHT22;15077;49.704;9.908;2022-11-15T15:42:20;16.50;65.60
27671;DHT22;15077;49.704;9.908;2022-11-15T15:44:47;16.50;65.60
27671;DHT22;15077;49.704;9.908;2022-11-15T15:47:14;16.50;65.60
27671;DHT22;15077;49.704;9.908;2022-11-15T15:49:42;16.40;65.50
27671;DHT22;15077;49.704;9.908;2022-11-15T15:52:08;16.40;65.50
27671;DHT22;15077;49.704;9.908;2022-11-15T15:54:33;16.40;65.50
27671;DHT22;15077;49.704;9.908;2022-11-15T15:56:59;16.40;65.50
27671;DHT22;15077;49.704;9.908;2022-11-15T15:59:25;16.30;65.50
27671;DHT22;15077;49.704;9.908;2022-11-15T16:01:50;16.30;65.50
27671;DHT22;15077;49.704;9.908;2022-11-15T16:04:16;16.30;65.50
27671;DHT22;15077;49.704;9.908;2022-11-15T16:06:42;16.30;65.50
27671;DHT22;15077;49.704;9.908;2022-11-15T16:09:16;16.30;65.50
27671;DHT22;15077;49.704;9.908;2022-11-15T16:11:44;16.20;65.50
27671;DHT22;15077;49.704;9.908;2022-11-15T16:14:11;16.20;65.50
27671;DHT22;15077;49.704;9.908;2022-11-15T16:16:37;16.20;65.50
27671;DHT22;15077;49.704;9.908;2022-11-15T16:19:03;16.20;65.40
27671;DHT22;15077;49.704;9.908;2022-11-15T16:21:29;16.10;65.40
27671;DHT22;15077;49.704;9.908;2022-11-15T16:23:55;16.10;65.40
27671;DHT22;15077;49.704;9.908;2022-11-15T16:26:25;16.00;65.40
27671;DHT22;15077;49.704;9.908;2022-11-15T16:28:53;16.00;65.40
27671;DHT22;15077;49.704;9.908;2022-11-15T16:31:19;16.00;65.50
27671;DHT22;15077;49.704;9.908;2022-11-15T16:33:48;16.00;65.40
27671;DHT22;15077;49.704;9.908;2022-11-15T16:36:20;15.90;65.30
27671;DHT22;15077;49.704;9.908;2022-11-15T16:38:48;15.90;65.40
27671;DHT22;15077;49.704;9.908;2022-11-15T16:41:14;15.90;65.40
27671;DHT22;15077;49.704;9.908;2022-11-15T16:43:43;15.90;65.40
27671;DHT22;15077;49.704;9.908;2022-11-15T16:46:14;15.80;65.30
27671;DHT22;15077;49.704;9.908;2022-11-15T16:48:42;15.80;65.30
27671;DHT22;15077;49.704;9.908;2022-11-15T16:51:08;15.80;65.30
27671;DHT22;15077;49.704;9.908;2022-11-15T16:53:34;15.70;65.30
27671;DHT22;15077;49.704;9.908;2022-11-15T16:56:00;15.70;65.20
27671;DHT22;15077;49.704;9.908;2022-11-15T16:58:26;15.70;65.20
27671;DHT22;15077;49.704;9.908;2022-11-15T17:00:52;15.70;65.20
27671;DHT22;15077;49.704;9.908;2022-11-15T17:03:19;15.60;65.30
27671;DHT22;15077;49.704;9.908;2022-11-15T17:05:49;15.60;65.30
27671;DHT22;15077;49.704;9.908;2022-11-15T17:08:15;15.50;65.20
27671;DHT22;15077;49.704;9.908;2022-11-15T17:10:40;15.50;65.30
27671;DHT22;15077;49.704;9.908;2022-11-15T17:13:07;15.50;65.20
27671;DHT22;15077;49.704;9.908;2022-11-15T17:15:36;15.50;65.30
27671;DHT22;15077;49.704;9.908;2022-11-15T17:18:02;15.40;65.30
27671;DHT22;15077;49.704;9.908;2022-11-15T17:20:28;15.40;65.40
27671;DHT22;15077;49.704;9.908;2022-11-15T17:22:53;15.40;65.40
27671;DHT22;15077;49.704;9.908;2022-11-15T17:25:20;15.30;65.40
27671;DHT22;15077;49.704;9.908;2022-11-15T17:27:46;15.30;65.40
27671;DHT22;15077;49.704;9.908;2022-11-15T17:30:12;15.30;65.40
27671;DHT22;15077;49.704;9.908;2022-11-15T17:32:42;15.30;65.40
27671;DHT22;15077;49.704;9.908;2022-11-15T17:35:09;15.30;65.40
27671;DHT22;15077;49.704;9.908;2022-11-15T17:37:36;15.30;65.50
27671;DHT22;15077;49.704;9.908;2022-11-15T17:40:02;15.20;65.40
27671;DHT22;15077;49.704;9.908;2022-11-15T17:42:28;15.20;65.40
27671;DHT22;15077;49.704;9.908;2022-11-15T17:44:54;15.20;65.40
27671;DHT22;15077;49.704;9.908;2022-11-15T17:47:20;15.20;65.50
27671;DHT22;15077;49.704;9.908;2022-11-15T17:49:46;15.20;65.50
27671;DHT22;15077;49.704;9.908;2022-11-15T17:52:11;15.10;65.40
27671;DHT22;15077;49.704;9.908;2022-11-15T17:54:37;15.10;65.40
27671;DHT22;15077;49.704;9.908;2022-11-15T17:57:02;15.10;65.40
27671;DHT22;15077;49.704;9.908;2022-11-15T17:59:28;15.10;65.50